Time;durP1;ratioP1;P1;durP2;ratioP2;P2;SDS_P1;SDS_P2;PMS_P1;PMS_P2;Temp;Humidity;BMP_temperature;BMP_pressure;BME280_temperature;BME280_humidity;BME280_pressure;Samples;Min_cycle;Max_cycle;Signal;HPM_P1;HPM_P2
2022/05/02 00:02:24;;;;;;;;;;;;;;;15.97;100.00;98048.72;5075844;27;19956;-62
2022/05/02 00:04:52;;;;;;;;;;;;;;;15.90;100.00;98037.53;5079233;28;19936;-62
2022/05/02 00:07:19;;;;;;;;;;;;;;;15.91;100.00;98033.72;5079517;28;19959;-61
2022/05/02 00:09:45;;;;;;;;;;;;;;;15.85;100.00;98028.72;5076543;28;20694;-61
2022/05/02 00:12:12;;;;;;;;;;;;;;;15.74;100.00;98030.78;5094641;27;19930;-62
2022/05/02 00:14:39;;;;;;;;;;;;;;;15.81;100.00;98027.72;5086830;27;19912;-62
2022/05/02 00:17:05;;;;;;;;;;;;;;;15.82;100.00;98024.72;5079022;28;19972;-61
2022/05/02 00:19:31;;;;;;;;;;;;;;;15.88;100.00;98023.53;5078367;28;19925;-63
2022/05/02 00:21:59;;;;;;;;;;;;;;;15.88;100.00;98028.94;5075714;28;19963;-62
2022/05/02 00:24:25;;;;;;;;;;;;;;;15.87;100.00;98026.53;5075573;28;19996;-61
2022/05/02 00:26:52;;;;;;;;;;;;;;;15.72;100.00;98029.47;5067376;28;19972;-61
2022/05/02 00:29:18;;;;;;;;;;;;;;;15.43;100.00;98018.84;5075788;28;20585;-62
2022/05/02 00:31:45;;;;;;;;;;;;;;;15.17;100.00;98028.34;5078033;28;19960;-62
2022/05/02 00:34:12;;;;;;;;;;;;;;;15.23;100.00;98021.78;5079154;28;19935;-61
2022/05/02 00:36:38;;;;;;;;;;;;;;;15.22;100.00;98030.97;5077121;28;19956;-61
2022/05/02 00:39:06;;;;;;;;;;;;;;;15.28;100.00;98029.81;5075606;28;19964;-62
2022/05/02 00:41:33;;;;;;;;;;;;;;;15.35;100.00;98032.94;5076100;28;19948;-61
2022/05/02 00:43:59;;;;;;;;;;;;;;;15.41;100.00;98021.81;5106299;27;19956;-61
2022/05/02 00:46:26;;;;;;;;;;;;;;;15.40;100.00;98028.28;5075453;28;19925;-61
2022/05/02 00:48:54;;;;;;;;;;;;;;;15.48;100.00;98024.97;5067073;28;19975;-61
2022/05/02 00:51:20;;;;;;;;;;;;;;;15.29;100.00;98021.44;5075554;28;19999;-61
2022/05/02 00:53:48;;;;;;;;;;;;;;;15.24;100.00;98028.78;5078237;28;19979;-61
2022/05/02 00:56:17;;;;;;;;;;;;;;;15.17;100.00;98028.34;5078928;28;19924;-62
2022/05/02 00:58:43;;;;;;;;;;;;;;;15.14;100.00;98025.16;5076429;28;20608;-61
2022/05/02 01:01:09;;;;;;;;;;;;;;;15.13;100.00;98030.81;5075049;28;19947;-61
2022/05/02 01:03:36;;;;;;;;;;;;;;;15.30;100.00;98023.03;5076319;27;19984;-61
2022/05/02 01:08:48;;;;;;;;;;;;;;;15.48;100.00;98035.72;5057717;28;19950;-62
2022/05/02 01:11:15;;;;;;;;;;;;;;;15.46;100.00;98029.00;5077843;28;19935;-61
2022/05/02 01:13:44;;;;;;;;;;;;;;;15.53;100.00;98026.81;5110806;27;19920;-62
2022/05/02 01:16:11;;;;;;;;;;;;;;;15.29;100.00;98026.03;5078622;28;19984;-61
2022/05/02 01:18:37;;;;;;;;;;;;;;;15.01;100.00;98036.59;5080179;28;19988;-63
2022/05/02 01:21:08;;;;;;;;;;;;;;;14.76;100.00;98026.16;5082097;28;19984;-61
2022/05/02 01:23:35;;;;;;;;;;;;;;;14.93;100.00;98021.13;5080450;28;19979;-62
2022/05/02 01:26:01;;;;;;;;;;;;;;;15.12;100.00;98013.88;5078274;28;19925;-62
2022/05/02 01:28:28;;;;;;;;;;;;;;;15.29;100.00;98012.59;5078507;28;20199;-61
2022/05/02 01:30:55;;;;;;;;;;;;;;;15.38;100.00;98014.31;5081851;28;20563;-61
2022/05/02 01:33:21;;;;;;;;;;;;;;;15.44;100.00;98007.00;5081916;28;19935;-62
2022/05/02 01:35:47;;;;;;;;;;;;;;;15.34;100.00;98012.50;5078673;28;19936;-62
2022/05/02 01:38:15;;;;;;;;;;;;;;;14.92;100.00;98006.06;5078275;28;19931;-62
2022/05/02 01:40:41;;;;;;;;;;;;;;;14.49;100.00;98009.81;5080287;28;19925;-62
2022/05/02 01:43:10;;;;;;;;;;;;;;;14.62;100.00;98005.63;5111331;27;19958;-62
2022/05/02 01:45:36;;;;;;;;;;;;;;;14.79;100.00;98000.59;5080191;28;19925;-65
2022/05/02 01:48:02;;;;;;;;;;;;;;;15.02;100.00;97992.50;5077861;28;19935;-61
2022/05/02 01:50:29;;;;;;;;;;;;;;;15.17;100.00;97993.34;5078261;28;20122;-61
2022/05/02 01:52:55;;;;;;;;;;;;;;;15.24;100.00;97986.53;5081432;28;19935;-62
2022/05/02 01:55:23;;;;;;;;;;;;;;;15.30;100.00;97987.25;5081537;28;19924;-62
2022/05/02 01:57:49;;;;;;;;;;;;;;;15.34;100.00;97981.03;5078209;28;19961;-60
2022/05/02 02:00:16;;;;;;;;;;;;;;;15.35;100.00;97989.91;5078061;28;19991;-61
2022/05/02 02:02:42;;;;;;;;;;;;;;;15.36;100.00;97986.09;5079280;28;19925;-62
2022/05/02 02:07:53;;;;;;;;;;;;;;;15.28;100.00;97987.56;5068311;28;19967;-61
2022/05/02 02:10:19;;;;;;;;;;;;;;;15.14;100.00;97984.00;5076431;28;19971;-61
2022/05/02 02:12:47;;;;;;;;;;;;;;;15.17;100.00;97990.66;5108930;27;19994;-62
2022/05/02 02:15:14;;;;;;;;;;;;;;;15.16;100.00;97989.91;5080047;28;19931;-62
2022/05/02 02:17:40;;;;;;;;;;;;;;;14.93;100.00;97988.84;5078081;28;19925;-61
2022/05/02 02:20:07;;;;;;;;;;;;;;;15.08;100.00;97985.94;5076728;28;19928;-61
2022/05/02 02:22:34;;;;;;;;;;;;;;;15.12;100.00;97984.28;5077084;28;19925;-61
2022/05/02 02:25:00;;;;;;;;;;;;;;;15.16;100.00;97983.72;5079850;28;19935;-61
2022/05/02 02:27:27;;;;;;;;;;;;;;;15.16;100.00;97981.81;5079911;28;19928;-61
2022/05/02 02:29:54;;;;;;;;;;;;;;;15.21;100.00;97986.31;5076316;28;20047;-61
2022/05/02 02:32:21;;;;;;;;;;;;;;;15.24;100.00;97991.13;5076582;28;19931;-61
2022/05/02 02:34:47;;;;;;;;;;;;;;;15.24;100.00;97986.53;5079192;28;20443;-61
2022/05/02 02:37:13;;;;;;;;;;;;;;;15.21;100.00;97980.94;5079827;28;19935;-62
2022/05/02 02:39:40;;;;;;;;;;;;;;;15.23;100.00;97973.38;5077897;28;19936;-61
2022/05/02 02:42:07;;;;;;;;;;;;;;;15.22;100.00;97980.66;5091248;27;19963;-62
2022/05/02 02:44:33;;;;;;;;;;;;;;;15.21;100.00;97987.13;5090420;27;19980;-60
2022/05/02 02:47:01;;;;;;;;;;;;;;;15.20;100.00;97972.06;5079611;28;19934;-61
2022/05/02 02:49:27;;;;;;;;;;;;;;;15.20;100.00;97977.44;5079588;28;19924;-61
2022/05/02 02:51:54;;;;;;;;;;;;;;;15.21;100.00;97980.94;5076135;28;19925;-62
2022/05/02 02:54:20;;;;;;;;;;;;;;;15.23;100.00;97978.75;5076091;28;20047;-61
2022/05/02 02:56:47;;;;;;;;;;;;;;;15.17;100.00;97974.53;5078690;28;19929;-61
2022/05/02 02:59:13;;;;;;;;;;;;;;;15.14;100.00;97970.53;5079398;28;19939;-62
2022/05/02 03:01:40;;;;;;;;;;;;;;;15.12;100.00;97967.34;5016309;28;1745775;-62
2022/05/02 03:06:48;;;;;;;;;;;;;;;15.11;100.00;97960.34;5079139;28;19929;-61
2022/05/02 03:09:15;;;;;;;;;;;;;;;15.12;100.00;97962.78;5080379;28;19956;-61
2022/05/02 03:11:41;;;;;;;;;;;;;;;15.14;100.00;97960.59;5078132;28;19925;-61
2022/05/02 03:14:07;;;;;;;;;;;;;;;15.16;100.00;97964.88;5106675;27;19957;-62
2022/05/02 03:16:33;;;;;;;;;;;;;;;15.08;100.00;97963.63;5077501;28;19924;-62
2022/05/02 03:19:00;;;;;;;;;;;;;;;15.02;100.00;97952.16;5080202;28;20009;-60
2022/05/02 03:21:28;;;;;;;;;;;;;;;14.84;100.00;97957.50;5080297;28;19927;-62
2022/05/02 03:23:54;;;;;;;;;;;;;;;14.82;100.00;97957.81;5068684;28;19992;-62
2022/05/02 03:26:20;;;;;;;;;;;;;;;14.91;100.00;97957.97;5076757;28;19925;-61
2022/05/02 03:28:46;;;;;;;;;;;;;;;14.91;100.00;97953.38;5079401;28;19988;-61
2022/05/02 03:31:13;;;;;;;;;;;;;;;14.96;100.00;97957.88;5080121;28;20367;-61
2022/05/02 03:33:39;;;;;;;;;;;;;;;14.95;100.00;97950.91;5077117;28;19963;-62
2022/05/02 03:36:07;;;;;;;;;;;;;;;14.97;100.00;97960.28;5058743;28;19964;-61
2022/05/02 03:38:34;;;;;;;;;;;;;;;14.79;100.00;97947.59;5077280;28;19933;-61
2022/05/02 03:41:01;;;;;;;;;;;;;;;14.52;100.00;97950.91;5079691;28;19949;-62
2022/05/02 03:43:27;;;;;;;;;;;;;;;14.11;100.00;97959.69;5109602;27;19925;-61
2022/05/02 03:45:53;;;;;;;;;;;;;;;13.94;100.00;97958.22;5076248;28;20352;-61
2022/05/02 03:48:20;;;;;;;;;;;;;;;13.87;100.00;97962.31;5076396;28;19931;-61
2022/05/02 03:50:47;;;;;;;;;;;;;;;14.00;100.00;97957.09;5078873;28;19967;-62
2022/05/02 03:53:15;;;;;;;;;;;;;;;13.86;100.00;97961.53;5079531;28;19992;-62
2022/05/02 03:55:45;;;;;;;;;;;;;;;13.69;100.00;97963.00;5077217;28;19924;-61
2022/05/02 03:58:11;;;;;;;;;;;;;;;13.60;100.00;97965.50;5075994;28;19925;-63
2022/05/02 04:00:37;;;;;;;;;;;;;;;13.48;100.00;97960.50;5077370;28;19920;-61
2022/05/02 04:03:04;;;;;;;;;;;;;;;13.84;100.00;97950.25;5079104;28;19984;-62
2022/05/02 04:05:30;;;;;;;;;;;;;;;14.00;100.00;97941.00;5078872;28;19972;-61
2022/05/02 04:07:56;;;;;;;;;;;;;;;14.19;100.00;97951.00;5057960;28;19985;-62
2022/05/02 04:10:23;;;;;;;;;;;;;;;14.28;100.00;97952.78;5075891;28;19931;-60
2022/05/02 04:12:51;;;;;;;;;;;;;;;14.42;100.00;97952.94;5108620;27;20000;-61
2022/05/02 04:15:18;;;;;;;;;;;;;;;14.49;100.00;97958.75;5079366;28;19924;-61
2022/05/02 04:17:44;;;;;;;;;;;;;;;14.05;100.00;97954.34;5076776;28;19968;-61
2022/05/02 04:20:11;;;;;;;;;;;;;;;13.70;100.00;97961.94;5075922;28;19992;-61
2022/05/02 04:22:38;;;;;;;;;;;;;;;13.77;100.00;97957.84;5059302;28;19988;-62
2022/05/02 04:25:05;;;;;;;;;;;;;;;14.06;100.00;97965.91;5078801;28;19932;-61
2022/05/02 04:27:32;;;;;;;;;;;;;;;13.87;100.00;97967.69;5078325;28;20023;-61
2022/05/02 04:29:59;;;;;;;;;;;;;;;13.33;100.00;97963.31;5075589;28;19988;-61
2022/05/02 04:32:26;;;;;;;;;;;;;;;12.82;100.00;97968.13;5075608;28;19932;-61
2022/05/02 04:34:54;;;;;;;;;;;;;;;12.66;100.00;97963.91;5067252;28;19960;-62
2022/05/02 04:37:20;;;;;;;;;;;;;;;13.03;100.00;97966.13;5075471;28;19950;-61
2022/05/02 04:39:46;;;;;;;;;;;;;;;12.77;100.00;97968.16;5077785;28;19921;-61
2022/05/02 04:42:13;;;;;;;;;;;;;;;12.76;100.00;97963.06;5077125;27;19923;-62
2022/05/02 04:44:39;;;;;;;;;;;;;;;13.27;100.00;97967.09;5086181;27;19925;-61
2022/05/02 04:47:07;;;;;;;;;;;;;;;13.11;100.00;97962.09;5078937;28;19984;-61
2022/05/02 04:49:33;;;;;;;;;;;;;;;13.07;100.00;97967.19;5077830;28;20015;-60
2022/05/02 04:52:00;;;;;;;;;;;;;;;13.22;100.00;97977.03;5075151;28;19935;-61
2022/05/02 04:54:26;;;;;;;;;;;;;;;13.09;100.00;97967.72;5075161;28;19988;-61
2022/05/02 04:56:52;;;;;;;;;;;;;;;12.71;100.00;97968.47;5067009;28;19980;-61
2022/05/02 04:59:19;;;;;;;;;;;;;;;12.53;100.00;97979.78;5075248;28;19955;-61
2022/05/02 05:01:45;;;;;;;;;;;;;;;12.49;100.00;97984.06;5077300;28;19933;-60
2022/05/02 05:04:13;;;;;;;;;;;;;;;12.40;100.00;97992.69;5078445;28;19931;-61
2022/05/02 05:06:39;;;;;;;;;;;;;;;12.33;100.00;97980.63;5076730;28;19924;-61
2022/05/02 05:09:05;;;;;;;;;;;;;;;12.42;100.00;97987.03;5075118;28;19936;-61
2022/05/02 05:11:36;;;;;;;;;;;;;;;12.69;100.00;97967.94;5075712;28;19925;-60
2022/05/02 05:17:04;;;;;;;;;;;;;;;13.20;100.00;97963.13;5067818;28;19932;-61
2022/05/02 05:19:41;;;;;;;;;;;;;;;12.72;100.00;97964.72;5075472;28;19925;-61
2022/05/02 05:22:15;;;;;;;;;;;;;;;12.70;100.00;97961.47;5078326;28;19993;-61
2022/05/02 05:24:56;;;;;;;;;;;;;;;12.94;100.00;97973.97;5076233;28;19931;-62
2022/05/02 05:27:29;;;;;;;;;;;;;;;13.25;100.00;97981.84;5074714;28;19964;-61
2022/05/02 05:30:02;;;;;;;;;;;;;;;13.33;100.00;97970.53;5066921;28;19921;-60
2022/05/02 05:32:30;;;;;;;;;;;;;;;13.62;100.00;97979.44;5057085;28;20588;-61
2022/05/02 05:35:04;;;;;;;;;;;;;;;13.90;100.00;97978.66;5060342;28;19931;-62
2022/05/02 05:37:54;;;;;;;;;;;;;;;14.15;100.00;97972.25;5077721;28;19929;-61
2022/05/02 05:40:25;;;;;;;;;;;;;;;14.00;100.00;97978.56;5074613;28;19988;-61
2022/05/02 05:42:57;;;;;;;;;;;;;;;14.24;100.00;97964.34;5107814;27;19925;-61
2022/05/02 05:45:30;;;;;;;;;;;;;;;14.08;100.00;97969.09;5077965;28;19928;-61
2022/05/02 05:47:59;;;;;;;;;;;;;;;14.27;100.00;97963.78;5066826;28;20070;-62
2022/05/02 05:50:30;;;;;;;;;;;;;;;14.24;100.00;97964.34;5074608;28;19925;-60
2022/05/02 05:53:08;;;;;;;;;;;;;;;14.46;100.00;97959.31;5066696;28;19931;-63
2022/05/02 05:55:44;;;;;;;;;;;;;;;14.63;100.00;97961.53;5075339;28;19952;-61
2022/05/02 05:58:15;;;;;;;;;;;;;;;14.73;100.00;97956.06;5081330;28;19924;-61
2022/05/02 06:00:43;;;;;;;;;;;;;;;14.86;100.00;97950.75;5078966;28;19996;-61
2022/05/02 06:03:13;;;;;;;;;;;;;;;15.03;100.00;97952.97;5077303;27;19976;-61
2022/05/02 06:05:43;;;;;;;;;;;;;;;15.08;100.00;97940.22;5079071;28;19956;-61
2022/05/02 06:08:09;;;;;;;;;;;;;;;15.03;100.00;97952.97;5080918;28;20274;-61
2022/05/02 06:10:37;;;;;;;;;;;;;;;14.54;100.00;97948.72;5079635;28;19992;-61
2022/05/02 06:13:03;;;;;;;;;;;;;;;14.55;100.00;97950.34;5088855;27;19924;-61
2022/05/02 06:18:31;;;;;;;;;;;;;;;14.80;100.00;97949.22;5077403;28;19963;-61
2022/05/02 06:21:03;;;;;;;;;;;;;;;14.81;100.00;97956.22;5069746;28;19928;-60
2022/05/02 06:23:32;;;;;;;;;;;;;;;14.85;100.00;97962.63;5077520;28;19925;-61
2022/05/02 06:25:58;;;;;;;;;;;;;;;14.79;100.00;97965.66;5080733;28;20031;-61
2022/05/02 06:28:28;;;;;;;;;;;;;;;15.14;100.00;97970.53;5080553;28;19928;-61
2022/05/02 06:30:57;;;;;;;;;;;;;;;15.52;100.00;97964.09;5068636;28;19933;-61
2022/05/02 06:33:24;;;;;;;;;;;;;;;15.78;100.00;97963.69;5076922;28;19931;-61
2022/05/02 06:35:59;;;;;;;;;;;;;;;15.99;100.00;97963.03;5061948;28;19925;-61
2022/05/02 06:38:34;;;;;;;;;;;;;;;15.96;100.00;97968.22;5080231;28;20024;-61
2022/05/02 06:41:08;;;;;;;;;;;;;;;16.16;100.00;97963.25;5069034;28;19928;-62
2022/05/02 06:43:39;;;;;;;;;;;;;;;16.26;100.00;97961.47;5109215;27;19931;-62
2022/05/02 06:46:13;;;;;;;;;;;;;;;16.33;100.00;97969.97;5076457;28;19931;-61
2022/05/02 06:48:42;;;;;;;;;;;;;;;16.47;100.00;97958.09;5077982;28;19925;-61
2022/05/02 06:51:13;;;;;;;;;;;;;;;16.60;100.00;97964.59;5079609;28;19925;-61
2022/05/02 06:53:58;;;;;;;;;;;;;;;16.75;100.00;97958.91;5077830;28;20028;-61
2022/05/02 06:56:32;;;;;;;;;;;;;;;16.50;100.00;97956.69;5076077;28;19935;-62
2022/05/02 06:59:02;;;;;;;;;;;;;;;16.65;100.00;97956.41;5068571;28;19928;-61
2022/05/02 07:01:31;;;;;;;;;;;;;;;16.85;100.00;97944.41;5075827;28;19931;-62
2022/05/02 07:04:13;;;;;;;;;;;;;;;16.85;100.00;97947.91;5079145;28;19925;-62
2022/05/02 07:06:53;;;;;;;;;;;;;;;16.92;100.00;97947.50;5077384;28;19931;-61
2022/05/02 07:09:23;;;;;;;;;;;;;;;16.82;100.00;97937.72;5075285;28;19931;-62
2022/05/02 07:11:59;;;;;;;;;;;;;;;16.66;100.00;97949.91;5081100;27;19924;-61
2022/05/02 07:14:33;;;;;;;;;;;;;;;16.38;100.00;97945.59;5096145;27;20349;-61
2022/05/02 07:17:03;;;;;;;;;;;;;;;16.26;100.00;97942.59;5069089;28;19992;-61
2022/05/02 07:19:34;;;;;;;;;;;;;;;16.16;100.00;97940.91;5076524;28;19980;-61
2022/05/02 07:22:02;;;;;;;;;;;;;;;16.05;100.00;97942.19;5079576;28;19931;-61
2022/05/02 07:24:35;;;;;;;;;;;;;;;16.07;100.00;97940.78;5079501;28;19939;-61
2022/05/02 07:27:09;;;;;;;;;;;;;;;16.37;100.00;97944.03;5075839;28;19928;-62
2022/05/02 07:29:35;;;;;;;;;;;;;;;17.03;100.00;97938.06;5077151;28;19972;-62
2022/05/02 07:32:04;;;;;;;;;;;;;;;16.80;100.00;97936.44;5079269;28;20009;-61
2022/05/02 07:34:30;;;;;;;;;;;;;;;16.90;100.00;97937.00;5078999;28;19992;-61
2022/05/02 07:36:59;;;;;;;;;;;;;;;17.09;100.00;97944.94;5075760;28;19992;-61
2022/05/02 07:39:26;;;;;;;;;;;;;;;16.89;100.00;97931.91;5076077;28;19960;-60
2022/05/02 07:41:53;;;;;;;;;;;;;;;17.02;100.00;97933.78;5064663;27;19936;-60
2022/05/02 07:44:24;;;;;;;;;;;;;;;16.70;100.00;97932.03;5100113;27;19925;-63
2022/05/02 07:46:51;;;;;;;;;;;;;;;16.80;100.00;97931.84;5078684;28;20007;-61
2022/05/02 07:49:22;;;;;;;;;;;;;;;16.83;100.00;97933.94;5079445;28;19925;-61
2022/05/02 07:51:51;;;;;;;;;;;;;;;17.00;100.00;97936.78;5076118;28;19956;-61
2022/05/02 07:54:19;;;;;;;;;;;;;;;16.72;100.00;97936.03;5075941;28;19925;-61
2022/05/02 07:56:46;;;;;;;;;;;;;;;16.18;100.00;97936.03;5078328;28;19933;-61
2022/05/02 07:59:15;;;;;;;;;;;;;;;16.10;100.00;97939.38;5079333;28;19992;-62
2022/05/02 08:01:43;;;;;;;;;;;;;;;16.20;100.00;97937.31;5077025;28;19992;-62
2022/05/02 08:04:12;;;;;;;;;;;;;;;16.33;100.00;97934.94;5075900;28;19924;-61
2022/05/02 08:06:46;;;;;;;;;;;;;;;16.46;100.00;97926.84;5077167;28;19957;-61
2022/05/02 08:09:22;;;;;;;;;;;;;;;16.85;100.00;97931.72;5079239;28;19928;-62
2022/05/02 08:11:53;;;;;;;;;;;;;;;17.21;100.00;97935.22;5078274;27;19929;-61
2022/05/02 08:14:22;;;;;;;;;;;;;;;16.85;100.00;97939.00;5099689;27;20407;-60
2022/05/02 08:16:54;;;;;;;;;;;;;;;16.70;100.00;97943.63;5078580;28;19993;-62
2022/05/02 08:19:28;;;;;;;;;;;;;;;16.60;100.00;97932.25;5078487;28;19946;-62
2022/05/02 08:27:15;;;;;;;;;;;;;;;15.99;100.00;97930.72;5067540;28;19953;-61
2022/05/02 08:27:45;;;;;;;;;;;;;;;16.29;100.00;97936.63;5077714;28;19920;-62
2022/05/02 08:30:16;;;;;;;;;;;;;;;16.57;100.00;97932.84;5075594;28;19987;-61
2022/05/02 08:32:45;;;;;;;;;;;;;;;16.46;100.00;97926.06;5077354;28;19925;-62
2022/05/02 08:35:13;;;;;;;;;;;;;;;16.44;100.00;97925.53;5079131;28;20115;-61
2022/05/02 08:37:50;;;;;;;;;;;;;;;16.64;100.00;97931.38;5077050;28;19929;-61
2022/05/02 08:40:23;;;;;;;;;;;;;;;16.62;100.00;97938.13;5075379;28;19925;-61
2022/05/02 08:43:05;;;;;;;;;;;;;;;16.52;100.00;97927.53;5108710;27;19946;-62
2022/05/02 08:45:42;;;;;;;;;;;;;;;16.69;100.00;97919.66;5078243;28;20033;-61
2022/05/02 08:48:38;;;;;;;;;;;;;;;17.16;100.00;97919.16;5075338;28;19932;-61
2022/05/02 08:51:17;;;;;;;;;;;;;;;16.94;100.00;97921.81;5068337;28;19925;-61
2022/05/02 08:54:12;;;;;;;;;;;;;;;16.81;100.00;97922.63;5077377;28;19932;-61
2022/05/02 08:56:46;;;;;;;;;;;;;;;16.55;100.00;97929.66;5076948;28;20016;-61
2022/05/02 08:59:36;;;;;;;;;;;;;;;16.65;100.00;97914.06;5074943;28;19932;-61
2022/05/02 09:02:13;;;;;;;;;;;;;;;16.56;100.00;97923.97;5082656;27;19935;-61
2022/05/02 09:05:05;;;;;;;;;;;;;;;16.66;100.00;97925.66;5076618;28;19975;-61
2022/05/02 09:07:52;;;;;;;;;;;;;;;16.71;100.00;97925.56;5077674;28;20015;-61
2022/05/02 09:10:29;;;;;;;;;;;;;;;16.59;100.00;97923.34;5074770;28;19931;-61
2022/05/02 09:13:10;;;;;;;;;;;;;;;16.79;100.00;97913.25;5095599;27;19988;-61
2022/05/02 09:15:48;;;;;;;;;;;;;;;16.82;100.00;97916.16;5077513;28;20024;-60
2022/05/02 09:18:48;;;;;;;;;;;;;;;17.01;100.00;97914.09;5075203;28;20016;-61
2022/05/02 09:21:24;;;;;;;;;;;;;;;17.07;100.00;97910.19;5069949;28;19984;-60
2022/05/02 09:24:17;;;;;;;;;;;;;;;17.25;100.00;97903.81;5078087;28;19951;-60
2022/05/02 09:27:06;;;;;;;;;;;;;;;17.40;100.00;97909.94;5075972;28;19934;-61
2022/05/02 09:29:51;;;;;;;;;;;;;;;17.66;100.00;97905.56;5075492;28;19924;-61
2022/05/02 09:32:18;;;;;;;;;;;;;;;17.77;100.00;97904.19;5080701;28;20323;-62
2022/05/02 09:34:47;;;;;;;;;;;;;;;17.58;100.00;97904.41;5079152;28;19964;-61
2022/05/02 09:37:21;;;;;;;;;;;;;;;17.54;100.00;97903.41;5078092;28;20572;-61
2022/05/02 09:39:48;;;;;;;;;;;;;;;17.66;100.00;97900.97;5080661;28;19975;-61
2022/05/02 09:42:29;;;;;;;;;;;;;;;17.66;100.00;97900.16;5098688;27;20010;-61
2022/05/02 09:50:49;;;;;;;;;;;;;;;17.94;100.00;97893.50;5078887;28;19950;-61
2022/05/02 09:53:26;;;;;;;;;;;;;;;17.80;99.03;97895.47;5077944;28;19992;-60
2022/05/02 09:58:43;;;;;;;;;;;;;;;17.76;100.00;97883.72;5079804;28;19928;-61
2022/05/02 10:01:17;;;;;;;;;;;;;;;17.97;99.17;97889.38;5077801;28;20251;-62
2022/05/02 10:04:02;;;;;;;;;;;;;;;18.00;98.39;97877.94;5079394;27;19947;-61
2022/05/02 10:06:31;;;;;;;;;;;;;;;18.08;97.36;97880.66;5081147;28;19924;-61
2022/05/02 10:09:02;;;;;;;;;;;;;;;18.19;99.26;97875.78;5077508;28;19990;-61
2022/05/02 10:11:39;;;;;;;;;;;;;;;18.18;94.60;97877.69;5077748;28;20416;-61
2022/05/02 10:14:18;;;;;;;;;;;;;;;18.33;94.82;97868.34;5109217;27;20643;-61
2022/05/02 10:16:48;;;;;;;;;;;;;;;18.38;95.15;97862.00;5079601;28;19925;-62
2022/05/02 10:19:20;;;;;;;;;;;;;;;18.27;95.31;97865.00;5080984;28;19931;-61
2022/05/02 10:21:55;;;;;;;;;;;;;;;18.39;91.24;97860.88;5078214;28;20264;-61
2022/05/02 10:24:37;;;;;;;;;;;;;;;18.47;90.94;97849.31;5077141;28;20023;-62
2022/05/02 10:27:08;;;;;;;;;;;;;;;18.46;85.63;97853.91;5070243;28;19924;-62
2022/05/02 10:29:40;;;;;;;;;;;;;;;18.71;88.14;97849.69;5078027;28;20027;-61
2022/05/02 10:32:08;;;;;;;;;;;;;;;18.64;90.11;97850.16;5080523;28;19974;-62
2022/05/02 10:34:37;;;;;;;;;;;;;;;18.69;89.25;97852.69;5079504;28;19920;-61
2022/05/02 10:37:06;;;;;;;;;;;;;;;18.61;89.28;97852.69;5076818;28;19936;-62
2022/05/02 10:39:39;;;;;;;;;;;;;;;18.58;89.31;97843.31;5077957;28;19932;-61
2022/05/02 10:42:06;;;;;;;;;;;;;;;18.80;84.49;97845.88;5091762;27;19921;-61
2022/05/02 10:44:41;;;;;;;;;;;;;;;18.88;90.19;97844.28;5092495;27;19960;-61
2022/05/02 10:47:08;;;;;;;;;;;;;;;19.02;83.04;97844.13;5080624;28;19939;-62
2022/05/02 10:49:42;;;;;;;;;;;;;;;18.97;79.72;97830.78;5079701;28;19925;-62
2022/05/02 10:52:16;;;;;;;;;;;;;;;18.91;78.06;97835.53;5077144;28;19925;-62
2022/05/02 10:54:46;;;;;;;;;;;;;;;18.75;80.10;97831.72;5078794;28;19984;-61
2022/05/02 10:57:18;;;;;;;;;;;;;;;19.04;82.45;97825.66;5062439;28;19956;-62
2022/05/02 10:59:50;;;;;;;;;;;;;;;19.31;80.44;97820.69;5078093;27;19939;-61
2022/05/02 11:02:34;;;;;;;;;;;;;;;19.16;80.23;97823.09;5076637;27;19925;-62
2022/05/02 11:05:06;;;;;;;;;;;;;;;19.13;84.34;97821.81;5069120;28;19925;-61
2022/05/02 11:07:38;;;;;;;;;;;;;;;19.41;81.58;97827.69;5077270;28;19924;-62
2022/05/02 11:10:07;;;;;;;;;;;;;;;19.41;80.45;97814.16;5079962;28;19996;-62
2022/05/02 11:12:37;;;;;;;;;;;;;;;19.20;82.58;97816.72;5104948;27;20290;-61
2022/05/02 11:15:06;;;;;;;;;;;;;;;19.18;80.66;97821.69;5079936;28;19924;-61
2022/05/02 11:17:38;;;;;;;;;;;;;;;19.02;82.04;97811.66;5079434;28;19920;-61
2022/05/02 11:22:57;;;;;;;;;;;;;;;19.30;81.77;97804.78;5079597;28;19924;-61
2022/05/02 11:25:27;;;;;;;;;;;;;;;19.46;81.09;97794.25;5080028;27;19924;-62
2022/05/02 11:27:59;;;;;;;;;;;;;;;19.43;78.82;97803.03;5067700;28;19921;-62
2022/05/02 11:30:28;;;;;;;;;;;;;;;19.38;81.88;97809.34;5076379;28;19921;-61
2022/05/02 11:33:06;;;;;;;;;;;;;;;19.42;82.79;97809.56;5068122;28;19925;-61
2022/05/02 11:35:33;;;;;;;;;;;;;;;19.33;82.50;97794.09;5076847;28;19971;-61
2022/05/02 11:38:03;;;;;;;;;;;;;;;19.51;79.60;97781.31;5079525;28;19959;-62
2022/05/02 11:40:33;;;;;;;;;;;;;;;19.43;80.17;97786.78;5079461;28;19924;-61
2022/05/02 11:42:59;;;;;;;;;;;;;;;19.61;80.29;97785.59;5105036;27;19935;-61
2022/05/02 11:45:40;;;;;;;;;;;;;;;19.70;78.02;97789.06;5079672;28;19992;-61
2022/05/02 11:48:24;;;;;;;;;;;;;;;19.66;77.22;97782.69;5069388;28;19992;-61
2022/05/02 11:50:55;;;;;;;;;;;;;;;19.59;76.81;97775.06;5078969;28;19935;-62
2022/05/02 11:53:25;;;;;;;;;;;;;;;19.58;77.92;97778.91;5078700;28;19992;-62
2022/05/02 11:55:53;;;;;;;;;;;;;;;19.53;80.62;97772.88;5075888;28;19925;-62
2022/05/02 11:58:26;;;;;;;;;;;;;;;19.46;79.12;97769.88;5075774;27;19996;-62
2022/05/02 12:00:59;;;;;;;;;;;;;;;19.52;78.11;97766.69;5078690;28;19924;-61
2022/05/02 12:03:26;;;;;;;;;;;;;;;19.67;80.05;97762.63;5078541;28;19929;-61
2022/05/02 12:05:55;;;;;;;;;;;;;;;19.68;78.98;97762.28;5086906;27;19933;-62
2022/05/02 12:08:26;;;;;;;;;;;;;;;19.77;79.45;97756.84;5094508;27;19964;-62
2022/05/02 12:11:04;;;;;;;;;;;;;;;19.80;79.17;97748.06;5078788;28;20016;-61
2022/05/02 12:13:33;;;;;;;;;;;;;;;19.90;73.65;97761.22;5109255;27;19938;-62
2022/05/02 12:16:02;;;;;;;;;;;;;;;19.97;75.87;97755.28;5075502;28;19924;-61
2022/05/02 12:18:42;;;;;;;;;;;;;;;20.02;79.25;97757.84;5075457;28;20020;-62
2022/05/02 12:21:09;;;;;;;;;;;;;;;19.91;67.79;97758.22;5079113;28;19965;-60
2022/05/02 12:23:37;;;;;;;;;;;;;;;19.99;67.16;97747.66;5077786;28;19942;-61
2022/05/02 12:26:05;;;;;;;;;;;;;;;19.82;66.71;97753.94;5075586;28;19967;-61
2022/05/02 12:28:39;;;;;;;;;;;;;;;19.94;68.09;97762.16;5075857;28;19928;-61
2022/05/02 12:31:07;;;;;;;;;;;;;;;19.96;68.13;97753.72;5078733;28;19991;-61
2022/05/02 12:33:34;;;;;;;;;;;;;;;19.92;70.33;97754.38;5077674;28;19931;-61
2022/05/02 12:36:01;;;;;;;;;;;;;;;20.02;68.22;97749.72;5075216;28;19988;-62
2022/05/02 12:38:28;;;;;;;;;;;;;;;20.16;70.59;97753.75;5075069;28;19969;-62
2022/05/02 12:41:01;;;;;;;;;;;;;;;20.05;70.21;97747.13;5066977;28;19924;-62
2022/05/02 12:43:29;;;;;;;;;;;;;;;19.87;74.46;97757.25;5108206;27;19924;-62
2022/05/02 12:45:57;;;;;;;;;;;;;;;20.15;72.63;97741.31;5058964;28;19925;-61
2022/05/02 12:48:29;;;;;;;;;;;;;;;20.20;70.61;97734.91;5074389;28;19988;-62
2022/05/02 12:50:58;;;;;;;;;;;;;;;20.42;73.10;97724.56;5066712;28;19997;-61
2022/05/02 12:56:09;;;;;;;;;;;;;;;20.34;66.94;97717.28;5068775;28;19931;-61
2022/05/02 13:01:21;;;;;;;;;;;;;;;20.55;68.06;97719.22;5078209;28;19963;-61
2022/05/02 13:03:55;;;;;;;;;;;;;;;20.29;65.80;97703.94;5075512;28;19924;-62
2022/05/02 13:06:22;;;;;;;;;;;;;;;20.31;65.80;97712.53;5077959;28;19985;-61
2022/05/02 13:08:49;;;;;;;;;;;;;;;20.08;70.85;97703.09;5081206;28;19979;-61
2022/05/02 13:11:20;;;;;;;;;;;;;;;20.18;73.35;97699.97;5081712;28;19983;-62
2022/05/02 13:13:48;;;;;;;;;;;;;;;20.07;69.31;97698.81;5110640;27;19963;-61
2022/05/02 13:16:16;;;;;;;;;;;;;;;19.81;71.69;97698.16;5078380;28;19946;-61
2022/05/02 13:18:45;;;;;;;;;;;;;;;19.74;68.13;97700.59;5080214;28;19925;-62
2022/05/02 13:21:13;;;;;;;;;;;;;;;19.77;72.41;97700.75;5081488;28;19929;-61
2022/05/02 13:23:40;;;;;;;;;;;;;;;19.90;67.93;97696.19;5079930;28;19924;-61
2022/05/02 13:26:19;;;;;;;;;;;;;;;19.93;68.86;97711.78;5077986;28;20031;-61
2022/05/02 13:28:51;;;;;;;;;;;;;;;19.99;69.27;97696.94;5080234;28;19928;-61
2022/05/02 13:31:20;;;;;;;;;;;;;;;20.05;71.29;97702.97;5081308;28;19924;-61